createdAt,value
2023-03-16T00:02:54.225Z,5.60
2023-03-16T00:05:56.772Z,7.80
2023-03-16T00:08:58.991Z,6.53
2023-03-16T00:12:04.935Z,8.25
2023-03-16T00:15:07.679Z,5.78
2023-03-16T00:18:10.126Z,9.13
2023-03-16T00:21:14.027Z,7.30
2023-03-16T00:24:18.093Z,7.85
2023-03-16T00:27:23.470Z,4.45
2023-03-16T00:30:27.281Z,6.72
2023-03-16T00:33:29.988Z,7.03
2023-03-16T00:36:33.961Z,6.55
2023-03-16T00:39:36.228Z,9.32
2023-03-16T00:42:38.629Z,5.62
2023-03-16T00:45:44.643Z,6.90
2023-03-16T00:48:47.741Z,6.97
2023-03-16T00:51:49.931Z,6.20
2023-03-16T00:54:53.036Z,8.73
2023-03-16T00:57:55.349Z,6.57
2023-03-16T01:00:59.591Z,6.87
2023-03-16T01:04:03.376Z,6.97
2023-03-16T01:07:08.002Z,5.50
2023-03-16T01:10:10.746Z,6.53
2023-03-16T01:13:13.237Z,6.57
2023-03-16T01:16:18.227Z,6.57
2023-03-16T01:19:22.796Z,9.82
2023-03-16T01:22:24.972Z,6.43
2023-03-16T01:25:27.513Z,6.22
2023-03-16T01:28:31.939Z,4.85
2023-03-16T01:31:34.579Z,4.30
2023-03-16T01:34:37.128Z,6.75
2023-03-16T01:37:39.802Z,7.12
2023-03-16T01:40:42.942Z,4.90
2023-03-16T01:43:46.113Z,6.30
2023-03-16T01:46:48.407Z,8.75
2023-03-16T01:49:55.833Z,5.72
2023-03-16T01:52:58.785Z,5.28
2023-03-16T01:56:04.459Z,4.70
2023-03-16T01:59:14.053Z,7.95
2023-03-16T02:02:21.034Z,6.82
2023-03-16T02:05:33.545Z,7.82
2023-03-16T02:08:38.977Z,9.57
2023-03-16T02:11:42.601Z,5.12
2023-03-16T02:14:49.914Z,5.45
2023-03-16T02:17:52.924Z,7.78
2023-03-16T02:20:55.113Z,6.12
2023-03-16T02:23:59.941Z,7.37
2023-03-16T02:27:07.273Z,8.48
2023-03-16T02:30:19.488Z,6.72
2023-03-16T02:33:23.191Z,7.03
2023-03-16T02:36:26.209Z,6.82
2023-03-16T02:39:28.692Z,6.12
2023-03-16T02:42:31.694Z,5.28
2023-03-16T02:45:46.120Z,9.65
2023-03-16T02:49:16.409Z,8.77
2023-03-16T02:52:18.996Z,5.15
2023-03-16T02:55:21.720Z,7.93
2023-03-16T02:58:24.074Z,8.77
2023-03-16T03:01:26.857Z,7.82
2023-03-16T03:04:29.868Z,6.25
2023-03-16T03:07:32.452Z,8.73
2023-03-16T03:10:35.044Z,9.00
2023-03-16T03:13:44.505Z,8.05
2023-03-16T03:16:47.908Z,11.17
2023-03-16T03:19:50.969Z,6.80
2023-03-16T03:22:53.369Z,7.47
2023-03-16T03:25:59.812Z,6.40
2023-03-16T03:29:03.153Z,9.30
2023-03-16T03:32:08.546Z,8.00
2023-03-16T03:35:13.046Z,7.10
2023-03-16T03:38:15.531Z,9.20
2023-03-16T03:41:18.975Z,8.95
2023-03-16T03:44:22.615Z,10.63
2023-03-16T03:47:25.026Z,10.15
2023-03-16T03:50:27.795Z,7.70
2023-03-16T03:53:31.136Z,7.60
2023-03-16T03:56:35.552Z,9.50
2023-03-16T03:59:42.651Z,7.12
2023-03-16T04:02:47.943Z,12.00
2023-03-16T04:05:51.873Z,9.98
2023-03-16T04:08:54.308Z,10.50
2023-03-16T04:11:58.612Z,10.35
2023-03-16T04:15:01.131Z,9.20
2023-03-16T04:18:06.240Z,9.05
2023-03-16T04:21:14.271Z,7.60
2023-03-16T04:24:17.281Z,7.57
2023-03-16T04:27:19.504Z,13.02
2023-03-16T04:30:23.471Z,9.55
2023-03-16T04:33:26.746Z,6.97
2023-03-16T04:36:29.514Z,8.85
2023-03-16T04:39:31.956Z,7.62
2023-03-16T04:42:35.934Z,9.45
2023-03-16T04:45:38.363Z,9.27
2023-03-16T04:48:40.993Z,8.38
2023-03-16T04:51:44.127Z,10.45
2023-03-16T04:54:47.752Z,9.15
2023-03-16T04:57:50.502Z,7.65
2023-03-16T05:00:58.031Z,9.05
2023-03-16T05:04:00.479Z,8.10
2023-03-16T05:07:03.414Z,10.43
2023-03-16T05:10:13.082Z,10.30
2023-03-16T05:13:15.634Z,9.75
2023-03-16T05:16:18.772Z,10.95
2023-03-16T05:19:21.759Z,10.15
2023-03-16T05:22:24.204Z,10.52
2023-03-16T05:25:30.520Z,12.15
2023-03-16T05:28:33.333Z,13.98
2023-03-16T05:31:37.923Z,10.38
2023-03-16T05:34:43.437Z,12.32
2023-03-16T05:37:46.340Z,11.52
2023-03-16T05:40:53.048Z,10.00
2023-03-16T05:43:56.603Z,11.60
2023-03-16T05:46:59.496Z,11.15
2023-03-16T05:50:04.312Z,11.12
2023-03-16T05:53:06.998Z,13.77
2023-03-16T05:56:10.977Z,11.75
2023-03-16T05:59:17.963Z,15.55
2023-03-16T06:02:22.452Z,9.13
2023-03-16T06:05:25.307Z,8.73
2023-03-16T06:08:28.057Z,9.85
2023-03-16T06:11:32.953Z,10.68
2023-03-16T06:14:35.776Z,9.98
2023-03-16T06:17:39.851Z,9.82
2023-03-16T06:20:42.082Z,12.40
2023-03-16T06:23:45.056Z,8.93
2023-03-16T06:26:47.660Z,7.53
2023-03-16T06:29:50.394Z,13.68
2023-03-16T06:32:52.911Z,8.43
2023-03-16T06:35:55.662Z,9.85
2023-03-16T06:39:00.878Z,9.52
2023-03-16T06:42:05.189Z,14.13
2023-03-16T06:45:08.912Z,9.30
2023-03-16T06:48:13.108Z,10.82
2023-03-16T06:51:16.870Z,10.63
2023-03-16T06:54:20.344Z,9.20
2023-03-16T06:57:23.875Z,10.35
2023-03-16T07:00:26.693Z,10.25
2023-03-16T07:03:29.628Z,10.45
2023-03-16T07:06:33.289Z,10.18
2023-03-16T07:09:39.119Z,9.45
2023-03-16T07:12:44.961Z,8.00
2023-03-16T07:15:52.190Z,8.50
2023-03-16T07:18:55.660Z,13.32
2023-03-16T07:21:57.890Z,8.02
2023-03-16T07:25:01.474Z,8.43
2023-03-16T07:28:04.620Z,8.93
2023-03-16T07:31:09.502Z,6.45
2023-03-16T07:34:12.221Z,7.95
2023-03-16T07:37:25.076Z,8.73
2023-03-16T07:40:29.513Z,7.35
2023-03-16T07:43:33.453Z,7.03
2023-03-16T07:46:36.931Z,9.02
2023-03-16T07:49:41.729Z,6.90
2023-03-16T07:52:44.204Z,8.00
2023-03-16T07:55:48.420Z,10.88
2023-03-16T07:58:51.719Z,8.27
2023-03-16T08:01:54.287Z,8.98
2023-03-16T08:04:58.150Z,7.28
2023-03-16T08:08:02.054Z,8.90
2023-03-16T08:11:05.049Z,8.30
2023-03-16T08:14:09.044Z,7.97
2023-03-16T08:17:14.386Z,13.48
2023-03-16T08:20:16.603Z,8.23
2023-03-16T08:23:19.836Z,8.93
2023-03-16T08:26:23.002Z,8.80
2023-03-16T08:29:28.544Z,6.78
2023-03-16T08:32:31.701Z,10.60
2023-03-16T08:35:34.569Z,9.30
2023-03-16T08:38:37.632Z,7.95
2023-03-16T08:41:43.778Z,8.23
2023-03-16T08:44:50.939Z,6.50
2023-03-16T08:47:54.489Z,10.18
2023-03-16T08:50:58.298Z,7.28
2023-03-16T08:54:00.763Z,7.20
2023-03-16T08:57:03.037Z,7.22
2023-03-16T09:00:14.620Z,7.85
2023-03-16T09:03:16.896Z,8.43
2023-03-16T09:06:19.991Z,7.05
2023-03-16T09:09:22.796Z,9.23
2023-03-16T09:12:26.748Z,7.97
2023-03-16T09:15:29.213Z,9.68
2023-03-16T09:18:33.041Z,7.18
2023-03-16T09:21:36.208Z,7.80
2023-03-16T09:24:39.207Z,8.82
2023-03-16T09:27:41.531Z,8.23
2023-03-16T09:30:44.155Z,7.80
2023-03-16T09:33:47.461Z,8.70
2023-03-16T09:36:50.338Z,7.65
2023-03-16T09:39:55.909Z,7.12
2023-03-16T09:43:14.347Z,7.18
2023-03-16T09:46:16.618Z,5.72
2023-03-16T09:49:23.100Z,8.93
2023-03-16T09:52:34.453Z,6.90
2023-03-16T09:55:38.853Z,7.57
2023-03-16T09:58:41.196Z,7.43
2023-03-16T10:01:51.088Z,6.40
2023-03-16T10:05:12.195Z,6.62
2023-03-16T10:08:25.679Z,7.70
2023-03-16T10:11:47.005Z,11.02
2023-03-16T10:15:12.732Z,7.47
2023-03-16T10:18:24.137Z,7.10
2023-03-16T10:21:27.290Z,4.82
2023-03-16T10:25:08.975Z,6.60
2023-03-16T10:28:17.019Z,13.23
2023-03-16T10:31:23.065Z,6.10
2023-03-16T10:34:26.162Z,6.68
2023-03-16T10:37:30.964Z,5.85
2023-03-16T10:40:38.837Z,4.75
2023-03-16T10:43:41.994Z,6.50
2023-03-16T10:46:48.651Z,5.40
2023-03-16T10:49:51.496Z,4.28
2023-03-16T10:52:55.518Z,4.57
2023-03-16T10:56:02.154Z,6.93
2023-03-16T10:59:27.730Z,4.28
2023-03-16T11:02:33.022Z,3.70
2023-03-16T11:05:37.481Z,5.28
2023-03-16T11:08:41.419Z,4.47
2023-03-16T11:11:49.403Z,4.85
2023-03-16T11:14:52.207Z,6.40
2023-03-16T11:17:55.032Z,3.65
2023-03-16T11:21:03.850Z,5.65
2023-03-16T11:24:14.877Z,5.82
2023-03-16T11:27:26.367Z,5.28
2023-03-16T11:30:39.972Z,5.75
2023-03-16T11:33:42.901Z,7.47
2023-03-16T11:37:16.955Z,5.68
2023-03-16T11:40:41.155Z,5.45
2023-03-16T11:43:43.226Z,4.07
2023-03-16T11:47:01.917Z,3.83
2023-03-16T11:50:30.436Z,4.15
2023-03-16T11:53:57.821Z,5.50
2023-03-16T11:57:08.744Z,4.50
2023-03-16T12:00:16.637Z,6.47
2023-03-16T12:03:31.478Z,2.72
2023-03-16T12:07:01.087Z,4.55
2023-03-16T12:10:29.200Z,7.07
2023-03-16T12:13:37.605Z,4.35
2023-03-16T12:16:49.944Z,3.78
2023-03-16T12:19:58.776Z,3.47
2023-03-16T12:23:13.184Z,4.68
2023-03-16T12:26:17.210Z,4.15
2023-03-16T12:29:41.920Z,3.10
2023-03-16T12:32:53.554Z,4.05
2023-03-16T12:36:07.767Z,3.40
2023-03-16T12:39:39.903Z,2.90
2023-03-16T12:43:03.662Z,2.53
2023-03-16T12:46:31.330Z,3.80
2023-03-16T12:49:36.731Z,2.28
2023-03-16T12:52:43.608Z,3.90
2023-03-16T12:55:46.098Z,2.33
2023-03-16T12:58:50.775Z,2.80
2023-03-16T13:01:59.107Z,2.12
2023-03-16T13:05:08.342Z,3.33
2023-03-16T13:08:16.042Z,2.60
2023-03-16T13:11:18.280Z,3.00
2023-03-16T13:14:35.404Z,4.45
2023-03-16T13:17:39.072Z,2.37
2023-03-16T13:20:53.176Z,3.97
2023-03-16T13:24:18.332Z,2.37
2023-03-16T13:27:29.352Z,2.85
2023-03-16T13:30:47.161Z,2.72
2023-03-16T13:33:54.540Z,5.32
2023-03-16T13:36:59.513Z,2.97
2023-03-16T13:40:04.440Z,2.75
2023-03-16T13:43:14.516Z,3.10
2023-03-16T13:46:20.565Z,3.60
2023-03-16T13:49:22.949Z,3.33
2023-03-16T13:52:34.575Z,5.87
2023-03-16T13:55:38.337Z,2.80
2023-03-16T13:58:45.487Z,3.60
2023-03-16T14:01:49.156Z,4.18
2023-03-16T14:04:51.880Z,2.22
2023-03-16T14:07:55.564Z,3.42
2023-03-16T14:11:01.115Z,3.28
2023-03-16T14:14:17.536Z,2.60
2023-03-16T14:17:21.732Z,2.25
2023-03-16T14:20:25.985Z,2.47
2023-03-16T14:23:36.721Z,2.40
2023-03-16T14:26:44.386Z,5.15
2023-03-16T14:29:53.743Z,4.55
2023-03-16T14:33:05.590Z,2.22
2023-03-16T14:36:19.633Z,3.55
2023-03-16T14:39:28.930Z,4.43
2023-03-16T14:42:32.059Z,2.47
2023-03-16T14:45:35.842Z,3.85
2023-03-16T14:48:38.699Z,2.83
2023-03-16T14:51:41.719Z,2.83
2023-03-16T14:54:46.994Z,3.05
2023-03-16T14:57:51.381Z,2.15
2023-03-16T15:00:54.732Z,3.87
2023-03-16T15:03:57.310Z,4.12
2023-03-16T15:07:01.548Z,3.10
2023-03-16T15:10:15.972Z,2.95
2023-03-16T15:13:42.426Z,3.00
2023-03-16T15:16:44.628Z,2.53
2023-03-16T15:19:47.057Z,2.33
2023-03-16T15:22:51.199Z,2.70
2023-03-16T15:25:58.464Z,3.97
2023-03-16T15:29:01.080Z,4.72
2023-03-16T15:32:03.926Z,4.90
2023-03-16T15:35:06.692Z,2.55
2023-03-16T15:38:31.301Z,6.90
2023-03-16T15:41:46.740Z,3.75
2023-03-16T15:44:49.866Z,3.62
2023-03-16T15:47:53.630Z,3.83
2023-03-16T15:51:19.560Z,3.47
2023-03-16T15:54:22.102Z,2.85
2023-03-16T15:57:24.800Z,6.40
2023-03-16T16:00:37.379Z,5.00
2023-03-16T16:03:40.210Z,4.32
2023-03-16T16:06:42.446Z,4.07
2023-03-16T16:09:44.917Z,3.62
2023-03-16T16:12:53.122Z,3.97
2023-03-16T16:15:58.762Z,3.33
2023-03-16T16:19:00.932Z,3.33
2023-03-16T16:22:04.222Z,4.75
2023-03-16T16:25:06.615Z,3.55
2023-03-16T16:28:35.286Z,3.65
2023-03-16T16:31:37.431Z,6.60
2023-03-16T16:34:39.857Z,4.85
2023-03-16T16:37:44.781Z,3.60
2023-03-16T16:40:47.602Z,3.28
2023-03-16T16:43:52.278Z,4.70
2023-03-16T16:46:55.129Z,5.45
2023-03-16T16:49:57.691Z,3.37
2023-03-16T16:53:00.165Z,8.68
2023-03-16T16:56:02.923Z,5.32
2023-03-16T16:59:18.059Z,6.28
2023-03-16T17:02:31.364Z,8.70
2023-03-16T17:05:33.820Z,14.40
2023-03-16T17:08:36.449Z,7.28
2023-03-16T17:11:39.072Z,9.38
2023-03-16T17:14:41.930Z,6.75
2023-03-16T17:17:45.820Z,10.15
2023-03-16T17:20:48.639Z,6.97
2023-03-16T17:23:54.944Z,8.20
2023-03-16T17:27:00.110Z,9.40
2023-03-16T17:30:03.079Z,9.23
2023-03-16T17:33:13.193Z,6.47
2023-03-16T17:36:16.840Z,9.15
2023-03-16T17:39:24.636Z,10.65
2023-03-16T17:42:27.447Z,6.47
2023-03-16T17:45:29.853Z,7.22
2023-03-16T17:48:33.563Z,8.48
2023-03-16T17:51:39.838Z,7.03
2023-03-16T17:54:42.852Z,6.37
2023-03-16T17:57:45.053Z,6.07
2023-03-16T18:00:49.223Z,9.73
2023-03-16T18:03:51.675Z,5.12
2023-03-16T18:06:54.221Z,6.97
2023-03-16T18:09:56.708Z,6.05
2023-03-16T18:13:06.641Z,7.28
2023-03-16T18:16:16.027Z,4.85
2023-03-16T18:19:25.366Z,7.57
2023-03-16T18:22:28.723Z,6.72
2023-03-16T18:25:34.622Z,8.90
2023-03-16T18:28:38.441Z,7.68
2023-03-16T18:31:42.251Z,9.68
2023-03-16T18:34:46.048Z,7.80
2023-03-16T18:37:48.785Z,7.60
2023-03-16T18:40:51.321Z,5.50
2023-03-16T18:43:56.451Z,8.57
2023-03-16T18:47:03.058Z,8.40
2023-03-16T18:50:06.443Z,5.00
2023-03-16T18:53:15.419Z,6.40
2023-03-16T18:56:21.189Z,6.62
2023-03-16T18:59:23.623Z,6.45
2023-03-16T19:02:28.784Z,9.77
2023-03-16T19:05:35.872Z,10.25
2023-03-16T19:08:38.493Z,7.95
2023-03-16T19:11:43.853Z,7.60
2023-03-16T19:14:46.012Z,9.50
2023-03-16T19:17:49.192Z,11.35
2023-03-16T19:20:53.765Z,9.35
2023-03-16T19:23:59.153Z,10.73
2023-03-16T19:27:01.960Z,9.90
2023-03-16T19:30:05.470Z,12.07
2023-03-16T19:33:27.353Z,14.23
2023-03-16T19:36:32.280Z,11.32
2023-03-16T19:39:34.506Z,9.90
2023-03-16T19:42:37.165Z,14.73
2023-03-16T19:45:39.421Z,8.55
2023-03-16T19:48:42.415Z,9.95
2023-03-16T19:51:44.558Z,10.05
2023-03-16T19:54:47.027Z,8.27
2023-03-16T19:57:58.330Z,9.07
2023-03-16T20:01:01.232Z,12.15
2023-03-16T20:04:04.461Z,9.13
2023-03-16T20:07:14.602Z,9.60
2023-03-16T20:10:19.746Z,10.38
2023-03-16T20:13:23.559Z,11.07
2023-03-16T20:16:29.955Z,10.75
2023-03-16T20:19:32.198Z,11.05
2023-03-16T20:22:34.886Z,10.98
2023-03-16T20:25:37.132Z,8.45
2023-03-16T20:28:39.691Z,9.13
2023-03-16T20:31:42.291Z,7.50
2023-03-16T20:34:45.485Z,7.75
2023-03-16T20:37:47.845Z,11.57
2023-03-16T20:40:54.553Z,11.40
2023-03-16T20:44:00.047Z,9.70
2023-03-16T20:47:02.526Z,8.25
2023-03-16T20:50:06.236Z,13.05
2023-03-16T20:53:08.927Z,11.40
2023-03-16T20:56:16.981Z,12.40
2023-03-16T20:59:24.887Z,10.77
2023-03-16T21:02:38.535Z,11.70
2023-03-16T21:05:41.290Z,11.80
2023-03-16T21:08:43.465Z,9.95
2023-03-16T21:11:46.975Z,8.57
2023-03-16T21:14:49.189Z,8.63
2023-03-16T21:17:58.549Z,10.57
2023-03-16T21:21:00.829Z,14.07
2023-03-16T21:24:03.631Z,10.60
2023-03-16T21:27:06.358Z,19.83
2023-03-16T21:30:58.181Z,19.87
2023-03-16T21:34:00.745Z,15.88
2023-03-16T21:37:03.209Z,16.20
2023-03-16T21:40:16.037Z,14.25
2023-03-16T21:43:18.612Z,11.65
2023-03-16T21:46:23.404Z,11.25
2023-03-16T21:49:25.953Z,14.75
2023-03-16T21:52:30.209Z,14.87
2023-03-16T21:55:32.848Z,14.18
2023-03-16T21:58:35.202Z,12.45
2023-03-16T22:01:50.646Z,13.52
2023-03-16T22:05:01.055Z,8.65
2023-03-16T22:08:18.728Z,10.65
2023-03-16T22:11:30.664Z,9.45
2023-03-16T22:14:32.848Z,13.55
2023-03-16T22:17:36.531Z,9.55
2023-03-16T22:20:38.859Z,9.98
2023-03-16T22:23:41.507Z,12.07
2023-03-16T22:26:43.665Z,11.18
2023-03-16T22:29:46.190Z,9.85
2023-03-16T22:32:54.899Z,9.43
2023-03-16T22:36:03.926Z,12.15
2023-03-16T22:39:12.244Z,11.25
2023-03-16T22:42:47.284Z,9.80
2023-03-16T22:45:49.553Z,9.30
2023-03-16T22:48:53.573Z,10.73
2023-03-16T22:51:57.450Z,11.30
2023-03-16T22:55:03.196Z,12.50
2023-03-16T22:58:14.924Z,7.93
2023-03-16T23:01:19.636Z,8.13
2023-03-16T23:04:25.799Z,7.32
2023-03-16T23:07:28.326Z,10.45
2023-03-16T23:10:31.289Z,9.13
2023-03-16T23:13:33.766Z,9.90
2023-03-16T23:16:37.050Z,14.55
2023-03-16T23:19:39.635Z,8.90
2023-03-16T23:22:42.246Z,9.43
2023-03-16T23:25:46.225Z,8.07
2023-03-16T23:28:49.274Z,10.00
2023-03-16T23:31:51.879Z,9.27
2023-03-16T23:34:54.052Z,12.13
2023-03-16T23:37:57.280Z,11.02
2023-03-16T23:40:59.415Z,11.82
2023-03-16T23:44:03.122Z,13.88
2023-03-16T23:47:05.501Z,11.07
2023-03-16T23:50:11.918Z,13.93
2023-03-16T23:53:18.929Z,7.87
2023-03-16T23:56:22.494Z,10.85
2023-03-16T23:59:25.485Z,11.82
